Time;durP1;ratioP1;P1;durP2;ratioP2;P2;SDS_P1;SDS_P2;PMS_P1;PMS_P2;Temp;Humidity;BMP_temperature;BMP_pressure;BME280_temperature;BME280_humidity;BME280_pressure;Samples;Min_cycle;Max_cycle;Signal;HPM_P1;HPM_P2
2021/09/05 00:03:38;;;;;;;9.38;5.68;;;;;;;14.43;100.00;94820.69;10285545;28;20487;-71
2021/09/05 00:08:39;;;;;;;10.43;6.40;;;;;;;14.49;100.00;94811.38;10286109;28;20043;-72
2021/09/05 00:13:39;;;;;;;6.75;5.07;;;;;;;14.44;100.00;94811.50;10285794;28;20035;-71
2021/09/05 00:18:39;;;;;;;10.60;5.57;;;;;;;14.38;100.00;94822.69;10285429;28;20038;-72
2021/09/05 00:23:40;;;;;;;7.50;6.00;;;;;;;14.26;100.00;94820.41;10285609;28;20046;-71
2021/09/05 00:28:41;;;;;;;10.60;5.60;;;;;;;14.23;100.00;94819.09;10285591;28;20023;-71
2021/09/05 00:33:41;;;;;;;7.57;4.95;;;;;;;14.21;100.00;94825.91;10285418;28;20113;-71
2021/09/05 00:38:41;;;;;;;7.60;5.03;;;;;;;14.27;100.00;94828.22;10285450;28;20080;-71
2021/09/05 00:44:14;;;;;;;9.83;5.67;;;;;;;14.32;100.00;94820.03;10284809;28;20027;-71
2021/09/05 00:49:15;;;;;;;11.05;6.13;;;;;;;14.30;100.00;94826.84;10262038;28;20074;-71
2021/09/05 00:54:15;;;;;;;10.73;5.97;;;;;;;14.30;100.00;94838.47;10283642;28;20118;-72
2021/09/05 00:59:17;;;;;;;7.78;5.60;;;;;;;14.12;100.00;94842.78;10283797;28;20887;-71
2021/09/05 01:04:18;;;;;;;9.55;5.93;;;;;;;13.94;100.00;94840.88;10284994;28;20045;-72
2021/09/05 01:09:18;;;;;;;7.00;5.78;;;;;;;13.84;100.00;94841.81;10284698;28;20054;-71
2021/09/05 01:14:19;;;;;;;9.07;5.53;;;;;;;13.64;100.00;94843.69;10271875;28;20041;-71
2021/09/05 01:19:21;;;;;;;7.47;5.10;;;;;;;13.50;100.00;94849.00;10291972;28;20062;-71
2021/09/05 01:24:22;;;;;;;9.75;5.80;;;;;;;13.43;100.00;94862.03;10291267;28;20054;-71
2021/09/05 01:29:23;;;;;;;7.57;5.30;;;;;;;13.29;100.00;94853.00;10291157;28;20023;-71
2021/09/05 01:34:24;;;;;;;9.10;5.10;;;;;;;13.23;100.00;94854.97;10291373;28;20042;-72
2021/09/05 01:39:25;;;;;;;12.38;6.05;;;;;;;13.18;100.00;94857.72;10291377;28;20061;-72
2021/09/05 01:44:26;;;;;;;15.30;6.13;;;;;;;13.23;100.00;94860.34;10290743;28;20530;-72
2021/09/05 01:49:26;;;;;;;10.02;5.97;;;;;;;13.24;100.00;94855.75;10290840;28;20292;-72
2021/09/05 01:54:26;;;;;;;10.07;6.37;;;;;;;13.21;100.00;94861.72;10289962;28;20520;-72
2021/09/05 01:59:27;;;;;;;8.73;5.67;;;;;;;13.25;100.00;94862.78;10288654;28;20027;-71
2021/09/05 02:04:27;;;;;;;6.90;5.23;;;;;;;13.20;100.00;94857.41;10289216;28;20294;-72
2021/09/05 02:09:27;;;;;;;12.97;6.00;;;;;;;13.14;100.00;94867.47;10289719;28;20047;-71
2021/09/05 02:14:28;;;;;;;11.83;5.73;;;;;;;13.06;100.00;94874.31;10289747;28;20292;-71
2021/09/05 02:19:29;;;;;;;9.57;6.50;;;;;;;13.15;100.00;94869.88;10289632;28;20031;-72
2021/09/05 02:24:29;;;;;;;11.20;7.18;;;;;;;12.96;100.00;94864.41;10289189;28;20118;-71
2021/09/05 02:29:29;;;;;;;10.13;6.93;;;;;;;13.01;100.00;94871.66;10289287;28;20713;-72
2021/09/05 02:34:30;;;;;;;12.88;8.35;;;;;;;12.95;100.00;94867.41;10288902;28;20370;-71
2021/09/05 02:39:30;;;;;;;9.98;8.00;;;;;;;12.87;100.00;94874.19;10288915;28;20033;-71
2021/09/05 02:44:31;;;;;;;13.87;8.27;;;;;;;12.77;100.00;94877.00;10288570;28;20030;-71
2021/09/05 02:49:31;;;;;;;15.53;8.97;;;;;;;12.83;100.00;94867.75;10286537;28;20109;-71
2021/09/05 02:54:31;;;;;;;14.95;8.88;;;;;;;12.69;100.00;94878.41;10287352;28;20042;-71
2021/09/05 02:59:32;;;;;;;15.37;9.00;;;;;;;12.65;100.00;94872.75;10286981;28;20121;-72
2021/09/05 03:04:33;;;;;;;13.15;9.00;;;;;;;12.44;100.00;94877.50;10287708;28;20039;-72
2021/09/05 03:09:33;;;;;;;15.20;9.50;;;;;;;12.47;100.00;94882.38;10287552;28;20058;-71
2021/09/05 03:14:34;;;;;;;16.60;9.53;;;;;;;12.45;100.00;94878.34;10269920;28;20282;-71
2021/09/05 03:19:34;;;;;;;20.08;9.80;;;;;;;12.33;100.00;94888.66;10287042;28;20040;-72
2021/09/05 03:24:34;;;;;;;16.30;9.63;;;;;;;12.29;100.00;94885.72;10286386;28;20114;-72
2021/09/05 03:29:35;;;;;;;17.47;10.17;;;;;;;12.21;100.00;94900.59;10285758;28;20337;-72
2021/09/05 03:34:35;;;;;;;13.47;9.10;;;;;;;12.21;100.00;94899.78;10284879;28;20277;-72
2021/09/05 03:39:35;;;;;;;17.43;9.33;;;;;;;12.09;100.00;94900.91;10286723;28;20031;-71
2021/09/05 03:44:36;;;;;;;15.97;10.07;;;;;;;12.10;100.00;94905.22;10286701;28;20403;-71
2021/09/05 03:49:36;;;;;;;14.97;9.33;;;;;;;12.12;100.00;94913.03;10286557;28;20459;-71
2021/09/05 03:54:36;;;;;;;11.30;8.23;;;;;;;12.17;100.00;94914.88;10286399;28;20391;-71
2021/09/05 03:59:37;;;;;;;15.87;7.60;;;;;;;12.16;100.00;94924.88;10286193;28;20035;-71
2021/09/05 04:04:38;;;;;;;11.73;5.97;;;;;;;12.19;100.00;94918.13;10286040;28;20742;-71
2021/09/05 04:14:57;;;;;;;10.88;6.78;;;;;;;12.24;100.00;94923.50;10285717;28;20027;-71
2021/09/05 04:19:58;;;;;;;11.37;7.07;;;;;;;12.21;100.00;94929.41;10285692;28;20035;-71
2021/09/05 04:24:58;;;;;;;7.68;5.78;;;;;;;12.08;100.00;94939.75;10285646;28;20034;-71
2021/09/05 04:29:59;;;;;;;11.45;6.13;;;;;;;11.99;100.00;94933.31;10285320;28;20485;-71
2021/09/05 04:35:00;;;;;;;12.07;6.57;;;;;;;12.03;100.00;94936.25;10285693;28;20038;-71
2021/09/05 04:40:02;;;;;;;11.45;6.18;;;;;;;12.20;100.00;94938.59;10285380;28;20414;-71
2021/09/05 04:45:03;;;;;;;9.45;5.93;;;;;;;12.38;100.00;94935.25;10285247;28;20130;-71
2021/09/05 04:50:04;;;;;;;10.32;6.20;;;;;;;12.75;100.00;94931.19;10292870;28;20046;-71
2021/09/05 04:55:05;;;;;;;11.25;6.65;;;;;;;13.13;100.00;94925.22;10293011;28;20109;-71
2021/09/05 05:00:06;;;;;;;9.05;6.20;;;;;;;13.44;100.00;94936.56;10292304;28;20042;-71
2021/09/05 05:05:07;;;;;;;11.63;6.63;;;;;;;13.60;100.00;94936.38;10292739;28;20461;-71
2021/09/05 05:10:08;;;;;;;14.30;7.07;;;;;;;13.85;100.00;94941.47;10292210;28;20058;-71
2021/09/05 05:15:09;;;;;;;9.15;6.80;;;;;;;14.10;100.00;94936.84;10291575;28;20710;-71
2021/09/05 05:20:11;;;;;;;10.75;6.50;;;;;;;14.28;100.00;94948.00;10291981;28;20395;-71
2021/09/05 05:25:12;;;;;;;10.93;6.80;;;;;;;14.17;100.00;94945.41;10291373;28;20892;-71
2021/09/05 05:30:13;;;;;;;13.25;8.00;;;;;;;14.12;100.00;94940.09;10291398;28;20106;-71
2021/09/05 05:35:13;;;;;;;12.73;7.53;;;;;;;14.24;100.00;94946.97;10291086;28;20061;-72
2021/09/05 05:40:14;;;;;;;14.67;7.87;;;;;;;14.25;100.00;94946.69;10291322;28;20038;-71
2021/09/05 05:45:17;;;;;;;11.70;7.77;;;;;;;14.43;100.00;94960.47;10290692;28;20832;-72
2021/09/05 05:50:17;;;;;;;17.23;9.65;;;;;;;15.14;100.00;94957.81;10290560;28;20455;-71
2021/09/05 05:55:21;;;;;;;16.83;8.88;;;;;;;16.23;100.00;94971.81;10290479;28;20039;-71
2021/09/05 06:00:25;;;;;;;14.00;7.78;;;;;;;17.19;100.00;94966.44;10287594;28;20092;-71
2021/09/05 06:05:25;;;;;;;9.43;5.90;;;;;;;18.32;100.00;94961.84;10289426;28;20046;-71
2021/09/05 06:10:25;;;;;;;9.00;5.20;;;;;;;19.23;99.57;94954.69;10289001;28;20053;-71
2021/09/05 06:15:26;;;;;;;10.30;5.03;;;;;;;19.79;93.72;94953.91;10289715;28;20127;-72
2021/09/05 06:20:27;;;;;;;8.63;5.35;;;;;;;20.03;93.05;94955.31;10289061;28;20042;-72
2021/09/05 06:25:27;;;;;;;14.13;5.90;;;;;;;19.37;96.12;94965.41;10289093;28;20041;-72
2021/09/05 06:30:27;;;;;;;22.87;6.17;;;;;;;18.79;100.00;94967.50;10287520;28;20541;-72
2021/09/05 06:35:29;;;;;;;13.13;6.13;;;;;;;18.38;100.00;94966.81;10289087;28;20497;-72
2021/09/05 06:40:30;;;;;;;14.98;5.65;;;;;;;18.17;100.00;94980.22;10288522;28;20475;-72
2021/09/05 06:45:31;;;;;;;10.60;4.97;;;;;;;18.08;100.00;94977.47;10288705;28;20061;-72
2021/09/05 06:50:31;;;;;;;7.70;4.97;;;;;;;18.16;100.00;94989.47;10288300;28;20113;-72
2021/09/05 06:55:32;;;;;;;11.90;5.37;;;;;;;18.86;100.00;94981.44;10286938;28;20065;-72
2021/09/05 07:00:32;;;;;;;18.48;6.95;;;;;;;19.28;98.06;94994.59;10287949;28;20369;-72
2021/09/05 07:05:34;;;;;;;17.17;6.17;;;;;;;19.21;100.00;94992.34;10287999;28;20463;-72
2021/09/05 07:10:36;;;;;;;13.23;6.60;;;;;;;19.29;95.62;94997.00;10287375;28;20070;-72
2021/09/05 07:15:36;;;;;;;17.30;5.55;;;;;;;19.28;100.00;95003.59;10287386;28;20109;-72
2021/09/05 07:20:38;;;;;;;10.20;5.80;;;;;;;19.17;100.00;95005.00;10286289;28;20122;-72
2021/09/05 07:25:38;;;;;;;10.90;5.50;;;;;;;19.12;100.00;95007.91;10286971;28;20422;-72
2021/09/05 07:30:38;;;;;;;11.60;5.70;;;;;;;19.17;100.00;95006.94;10287020;28;20027;-72
2021/09/05 07:35:39;;;;;;;8.70;5.50;;;;;;;19.22;100.00;95006.78;10286687;28;20038;-72
2021/09/05 07:40:39;;;;;;;10.53;6.03;;;;;;;19.45;100.00;95010.13;10286648;28;20043;-72
2021/09/05 07:45:40;;;;;;;11.07;6.30;;;;;;;19.69;100.00;95009.63;10286273;28;20026;-72
2021/09/05 07:50:40;;;;;;;8.52;5.63;;;;;;;20.03;100.00;95018.84;10284304;28;20038;-71
2021/09/05 07:55:40;;;;;;;10.43;5.07;;;;;;;21.15;93.30;95021.31;10286394;28;20034;-72
2021/09/05 08:00:41;;;;;;;13.43;5.83;;;;;;;22.76;83.29;95010.72;10287115;28;20035;-72
2021/09/05 08:05:41;;;;;;;12.73;5.70;;;;;;;25.13;61.63;95009.06;10286986;28;20038;-72
2021/09/05 08:10:41;;;;;;;8.00;4.67;;;;;;;26.81;51.63;95013.38;10287235;28;20797;-72
2021/09/05 08:15:42;;;;;;;9.63;4.37;;;;;;;26.76;48.38;95014.50;10286977;28;20038;-72
2021/09/05 08:20:42;;;;;;;8.00;4.73;;;;;;;25.94;49.49;95011.06;10287928;28;20035;-72
2021/09/05 08:25:43;;;;;;;6.13;4.73;;;;;;;25.47;50.37;95006.66;10295404;28;20031;-72
2021/09/05 08:30:43;;;;;;;7.37;4.33;;;;;;;25.32;51.63;95008.28;10295186;28;20027;-72
2021/09/05 08:35:47;;;;;;;11.40;4.60;;;;;;;24.57;53.78;95010.94;10294609;28;20045;-72
2021/09/05 08:40:49;;;;;;;6.28;3.92;;;;;;;24.61;57.33;95006.34;10294551;28;20101;-72
2021/09/05 08:45:50;;;;;;;5.43;3.50;;;;;;;25.66;51.16;95001.16;10294306;28;20080;-72
2021/09/05 08:50:52;;;;;;;10.13;4.40;;;;;;;27.25;46.90;94989.94;10294493;28;20031;-72
2021/09/05 08:55:53;;;;;;;7.20;3.88;;;;;;;26.58;47.68;94997.66;10294134;28;20031;-72
2021/09/05 09:00:53;;;;;;;7.80;4.20;;;;;;;26.06;49.04;94997.16;10293524;28;20038;-72
2021/09/05 09:05:56;;;;;;;6.63;3.77;;;;;;;26.73;45.73;94995.13;10293843;28;20060;-72
2021/09/05 09:11:02;;;;;;;8.93;3.55;;;;;;;28.99;39.84;94982.94;10293358;28;20426;-72
2021/09/05 09:16:11;;;;;;;7.60;3.00;;;;;;;28.46;39.96;94986.13;10293185;28;20045;-72
2021/09/05 09:21:15;;;;;;;6.70;3.10;;;;;;;28.76;40.12;94977.69;10293008;28;20088;-72
2021/09/05 09:26:16;;;;;;;4.85;2.42;;;;;;;28.59;36.19;94965.28;10292995;28;20027;-72
2021/09/05 09:31:20;;;;;;;6.30;3.17;;;;;;;28.63;36.66;94968.91;10292857;28;20029;-72
2021/09/05 09:36:23;;;;;;;11.75;3.65;;;;;;;27.37;37.50;94964.09;10291647;28;20046;-72
2021/09/05 09:41:31;;;;;;;5.75;3.42;;;;;;;27.08;37.66;94961.72;10298378;28;20711;-72
2021/09/05 09:46:36;;;;;;;4.90;3.70;;;;;;;28.71;36.67;94955.13;10290893;28;20038;-72
2021/09/05 09:51:38;;;;;;;6.10;2.97;;;;;;;28.88;34.49;94959.16;10290623;28;20427;-72
2021/09/05 09:56:38;;;;;;;5.15;2.70;;;;;;;29.12;33.05;94952.97;10290603;28;20062;-72
2021/09/05 10:01:39;;;;;;;7.13;2.37;;;;;;;31.13;29.76;94948.91;10288550;28;20118;-72
2021/09/05 10:06:39;;;;;;;4.25;2.58;;;;;;;33.69;28.50;94937.75;10289250;28;20081;-70
2021/09/05 10:11:40;;;;;;;6.90;6.05;;;;;;;34.49;27.96;94932.59;10289371;28;20389;-70
2021/09/05 10:16:44;;;;;;;5.68;2.80;;;;;;;33.88;27.01;94945.47;10289605;28;20522;-70
2021/09/05 10:21:44;;;;;;;6.70;2.75;;;;;;;33.77;27.09;94930.91;10289408;28;20061;-70
2021/09/05 10:27:05;;;;;;;8.68;2.67;;;;;;;34.72;24.96;94931.03;10289290;28;20027;-70
2021/09/05 10:32:05;;;;;;;3.65;2.33;;;;;;;34.65;26.96;94933.91;10289310;28;20026;-70
2021/09/05 10:37:14;;;;;;;4.63;2.85;;;;;;;34.08;28.00;94930.84;10288856;28;20026;-70
2021/09/05 10:42:24;;;;;;;7.07;2.60;;;;;;;33.21;27.24;94926.38;10271065;28;20038;-70
2021/09/05 10:47:43;;;;;;;5.82;3.25;;;;;;;31.80;28.31;94931.53;10271113;28;20026;-72
2021/09/05 10:52:47;;;;;;;7.28;2.78;;;;;;;32.66;27.95;94921.78;10288305;28;20031;-73
2021/09/05 10:57:47;;;;;;;9.70;2.65;;;;;;;33.37;27.99;94925.03;10287933;28;20034;-73
2021/09/05 11:03:08;;;;;;;2.40;1.90;;;;;;;34.68;25.97;94917.13;10287827;28;20053;-70
2021/09/05 11:08:24;;;;;;;2.90;2.40;;;;;;;34.15;24.71;94914.00;10288060;28;20558;-71
2021/09/05 11:13:48;;;;;;;7.65;2.50;;;;;;;33.42;26.60;94923.75;10287594;28;20038;-71
2021/09/05 11:18:49;;;;;;;4.45;2.10;;;;;;;34.13;25.09;94921.97;10287364;28;20057;-71
2021/09/05 11:23:50;;;;;;;5.43;2.30;;;;;;;32.63;26.20;94925.38;10287264;28;20587;-71
2021/09/05 11:28:52;;;;;;;4.05;2.75;;;;;;;30.36;28.48;94916.09;10285860;28;20026;-71
2021/09/05 11:34:05;;;;;;;8.05;3.10;;;;;;;29.36;30.90;94917.53;10286682;28;20030;-72
2021/09/05 11:39:05;;;;;;;4.45;2.72;;;;;;;28.68;31.56;94920.72;10285466;28;20197;-73
2021/09/05 11:44:06;;;;;;;8.40;2.30;;;;;;;28.59;32.13;94928.53;10286476;28;20027;-72
2021/09/05 11:49:06;;;;;;;9.53;3.30;;;;;;;28.09;32.93;94927.00;10286770;28;20371;-72
2021/09/05 11:54:07;;;;;;;5.40;3.23;;;;;;;27.47;32.19;94924.00;10286233;28;20117;-72
2021/09/05 11:59:09;;;;;;;4.53;2.85;;;;;;;26.71;34.68;94942.31;10285854;28;20417;-73
2021/09/05 12:04:10;;;;;;;6.18;2.92;;;;;;;26.22;34.15;94938.41;10268842;28;20030;-73
2021/09/05 12:09:11;;;;;;;4.15;3.05;;;;;;;25.61;37.00;94942.81;10285253;28;20481;-73
2021/09/05 12:14:26;;;;;;;4.55;2.65;;;;;;;25.61;36.59;94934.56;10285183;28;20026;-72
2021/09/05 12:19:26;;;;;;;4.78;3.30;;;;;;;25.45;39.59;94937.44;10284804;28;20026;-73
2021/09/05 12:24:27;;;;;;;5.80;2.57;;;;;;;25.37;37.44;94936.50;10285975;28;20035;-73
2021/09/05 12:29:30;;;;;;;5.05;2.90;;;;;;;25.43;37.16;94940.53;10285523;28;20031;-72
2021/09/05 12:34:40;;;;;;;5.30;2.80;;;;;;;25.17;36.83;94936.47;10285518;28;20031;-72
2021/09/05 12:39:41;;;;;;;7.43;2.85;;;;;;;25.05;37.49;94942.13;10285131;28;20030;-73
2021/09/05 12:44:45;;;;;;;7.43;3.05;;;;;;;24.94;37.35;94927.38;10285567;28;20035;-72
2021/09/05 12:49:45;;;;;;;4.30;3.80;;;;;;;24.77;37.71;94928.56;10285276;28;20026;-72
2021/09/05 12:54:46;;;;;;;6.93;2.75;;;;;;;24.68;37.12;94924.06;10285437;28;20030;-72
2021/09/05 12:59:46;;;;;;;4.20;2.80;;;;;;;24.59;38.13;94920.69;10285243;28;20034;-73
2021/09/05 13:04:46;;;;;;;6.13;3.50;;;;;;;24.50;38.23;94922.84;10283918;28;20034;-73
2021/09/05 13:09:47;;;;;;;7.30;3.13;;;;;;;24.53;38.23;94936.66;10290266;28;20063;-72
2021/09/05 13:14:47;;;;;;;4.40;2.90;;;;;;;24.61;38.57;94929.41;10292280;28;20037;-73
2021/09/05 13:19:47;;;;;;;7.20;2.43;;;;;;;24.78;38.00;94927.41;10290466;28;20023;-72
2021/09/05 13:24:48;;;;;;;4.33;2.57;;;;;;;24.76;38.73;94936.00;10291013;28;20276;-72
2021/09/05 13:29:48;;;;;;;4.43;2.60;;;;;;;24.82;40.46;94939.28;10290829;28;20454;-72
2021/09/05 13:34:49;;;;;;;5.73;2.47;;;;;;;24.74;38.96;94941.06;10291539;28;20289;-72
2021/09/05 13:39:50;;;;;;;3.93;2.47;;;;;;;24.96;39.32;94938.78;10290857;28;20061;-72
2021/09/05 13:44:50;;;;;;;6.93;2.70;;;;;;;25.17;38.27;94941.97;10290858;28;20485;-73
2021/09/05 13:49:51;;;;;;;5.55;2.63;;;;;;;25.17;38.20;94935.69;10291005;28;20035;-72
2021/09/05 13:54:51;;;;;;;2.92;2.63;;;;;;;24.87;38.20;94934.28;10290651;28;20038;-72
2021/09/05 13:59:52;;;;;;;3.63;2.80;;;;;;;24.25;39.30;94934.03;10289682;28;20049;-72
2021/09/05 14:04:52;;;;;;;7.20;2.90;;;;;;;23.68;40.91;94941.63;10289046;28;20481;-72
2021/09/05 14:09:53;;;;;;;6.00;2.95;;;;;;;23.33;41.30;94929.38;10288644;28;20070;-72
2021/09/05 14:14:53;;;;;;;4.23;3.00;;;;;;;23.02;41.45;94932.78;10289573;28;20481;-72
2021/09/05 14:19:54;;;;;;;4.60;2.47;;;;;;;22.83;42.36;94936.16;10287701;28;20290;-72
2021/09/05 14:24:54;;;;;;;5.22;3.33;;;;;;;22.70;44.01;94933.44;10289594;28;20034;-72
2021/09/05 14:51:41;;;;;;;7.47;3.22;;;;;;;22.55;45.82;94945.13;10289306;28;20109;-72
2021/09/05 14:56:42;;;;;;;8.77;3.00;;;;;;;22.46;46.06;94941.69;10288375;28;20027;-72
2021/09/05 15:12:21;;;;;;;5.75;2.78;;;;;;;22.31;46.28;94941.22;10288045;28;20348;-72
2021/09/05 15:17:22;;;;;;;5.00;3.20;;;;;;;22.17;47.35;94938.84;10287548;28;20038;-72
2021/09/05 15:22:32;;;;;;;6.38;3.20;;;;;;;22.00;49.66;94947.25;10287085;28;20042;-72
2021/09/05 15:54:03;;;;;;;8.13;3.58;;;;;;;21.18;51.91;94956.94;10286461;28;20042;-70
2021/09/05 15:59:26;;;;;;;6.97;3.70;;;;;;;21.03;51.84;94958.38;10299527;28;20043;-73
2021/09/05 16:20:31;;;;;;;16.38;3.42;;;;;;;20.92;52.64;94968.13;10262444;28;20479;-71
2021/09/05 16:25:31;;;;;;;9.63;3.87;;;;;;;20.97;52.92;94967.91;10285671;28;20034;-71
2021/09/05 16:30:36;;;;;;;5.80;3.90;;;;;;;20.96;52.10;94974.50;10285172;28;20035;-71
2021/09/05 16:40:48;;;;;;;6.93;3.83;;;;;;;20.86;53.97;94977.63;10284820;28;20027;-71
2021/09/05 16:45:54;;;;;;;4.27;3.40;;;;;;;20.85;53.47;94974.09;10292799;28;20379;-71
2021/09/05 16:50:54;;;;;;;5.88;3.30;;;;;;;20.79;53.99;94989.06;10292883;28;20504;-72
2021/09/05 16:55:55;;;;;;;7.00;3.13;;;;;;;20.62;56.97;94993.53;10292459;28;20043;-71
2021/09/05 17:00:56;;;;;;;11.60;3.80;;;;;;;20.58;58.65;94992.56;10292726;28;20035;-72
2021/09/05 17:05:56;;;;;;;13.32;4.05;;;;;;;20.36;60.40;95004.59;10292676;28;20105;-71
2021/09/05 17:10:58;;;;;;;7.20;4.33;;;;;;;20.30;61.61;95012.16;10292036;28;20121;-71
2021/09/05 17:16:01;;;;;;;5.40;3.47;;;;;;;20.26;59.71;95015.84;10290855;28;20051;-71
2021/09/05 17:21:01;;;;;;;6.65;3.10;;;;;;;20.11;60.31;95015.28;10291183;28;20030;-71
2021/09/05 17:26:02;;;;;;;7.95;4.00;;;;;;;19.93;61.91;95024.66;10291807;28;20029;-71
2021/09/05 17:31:02;;;;;;;5.43;3.55;;;;;;;19.90;63.26;95036.19;10291695;28;20413;-71
2021/09/05 17:36:03;;;;;;;10.57;4.57;;;;;;;19.94;63.98;95045.34;10291262;28;20042;-71
2021/09/05 17:41:03;;;;;;;5.20;4.00;;;;;;;19.73;63.41;95059.66;10291106;28;20819;-71
2021/09/05 17:46:03;;;;;;;7.77;4.20;;;;;;;19.78;63.95;95066.84;10291230;28;20293;-71
2021/09/05 17:51:04;;;;;;;7.17;4.67;;;;;;;19.82;62.55;95070.56;10290918;28;20027;-71
2021/09/05 17:56:04;;;;;;;5.77;4.10;;;;;;;19.76;64.16;95069.13;10289681;28;20708;-72
2021/09/05 18:01:05;;;;;;;10.30;4.53;;;;;;;19.68;65.55;95083.56;10315050;28;20350;-72
2021/09/05 18:06:05;;;;;;;13.47;5.73;;;;;;;19.56;68.21;95086.94;10369591;28;20149;-72
2021/09/05 18:11:06;;;;;;;7.07;4.30;;;;;;;19.45;66.64;95086.44;10335131;28;20035;-72
2021/09/05 18:16:07;;;;;;;6.82;4.15;;;;;;;19.32;66.33;95098.31;10329952;28;20474;-74
2021/09/05 18:21:07;;;;;;;8.00;4.18;;;;;;;19.25;68.50;95099.59;10346780;28;20034;-72
2021/09/05 18:26:08;;;;;;;12.27;4.80;;;;;;;19.11;68.45;95104.38;10346788;28;20025;-71
2021/09/05 18:31:10;;;;;;;7.55;4.45;;;;;;;19.09;65.63;95110.16;10343013;28;20026;-71
2021/09/05 18:36:11;;;;;;;8.70;5.15;;;;;;;18.91;68.01;95111.25;10341108;28;20041;-70
2021/09/05 18:41:12;;;;;;;9.68;4.90;;;;;;;18.75;69.88;95121.72;10330262;28;20549;-71
2021/09/05 18:46:12;;;;;;;10.52;5.38;;;;;;;18.80;71.00;95127.03;10328358;28;20026;-71
2021/09/05 18:51:13;;;;;;;8.27;4.93;;;;;;;18.75;72.27;95129.91;10328640;28;20033;-71
2021/09/05 18:56:13;;;;;;;9.23;4.77;;;;;;;18.69;75.23;95123.00;10332955;28;20034;-72
2021/09/05 19:01:14;;;;;;;8.32;3.80;;;;;;;18.60;76.61;95142.00;10328453;28;20393;-71
2021/09/05 19:06:14;;;;;;;9.68;4.45;;;;;;;18.64;82.48;95128.59;10327322;28;20034;-71
2021/09/05 19:11:15;;;;;;;8.53;4.03;;;;;;;18.67;82.29;95136.13;10327533;28;20030;-71
2021/09/05 19:16:16;;;;;;;9.37;3.67;;;;;;;18.53;82.33;95134.31;10327612;28;20034;-71
2021/09/05 19:21:17;;;;;;;7.47;4.38;;;;;;;18.48;83.33;95128.22;10327423;28;20293;-71
2021/09/05 19:26:17;;;;;;;7.45;4.82;;;;;;;18.48;85.01;95125.50;10304167;28;20031;-73
2021/09/05 19:31:17;;;;;;;8.02;4.53;;;;;;;18.36;86.94;95131.50;10302205;28;20457;-72
2021/09/05 19:36:19;;;;;;;9.60;3.67;;;;;;;18.41;86.50;95137.63;10365106;28;20029;-71
2021/09/05 19:41:19;;;;;;;10.77;4.47;;;;;;;18.39;88.04;95133.59;10364236;28;20541;-71
2021/09/05 19:46:19;;;;;;;7.50;4.37;;;;;;;18.23;89.20;95133.22;10335895;28;20084;-71
2021/09/05 19:51:21;;;;;;;9.05;4.55;;;;;;;18.13;90.04;95134.28;10367606;28;20277;-71
2021/09/05 19:56:21;;;;;;;11.35;4.80;;;;;;;17.95;93.59;95129.84;10366816;28;20732;-71
2021/09/05 20:01:21;;;;;;;7.07;4.50;;;;;;;17.77;95.55;95135.94;10366630;28;20038;-72
2021/09/05 20:06:22;;;;;;;10.53;5.03;;;;;;;17.66;97.61;95139.22;10360610;28;20066;-70
2021/09/05 20:11:22;;;;;;;5.57;3.80;;;;;;;17.64;98.19;95146.84;10285847;28;20027;-71
2021/09/05 20:16:23;;;;;;;8.00;5.50;;;;;;;17.65;99.50;95143.84;10286789;28;20038;-71
2021/09/05 20:21:23;;;;;;;7.68;5.25;;;;;;;17.65;98.11;95132.16;10298967;28;20046;-72
2021/09/05 20:26:24;;;;;;;15.93;4.97;;;;;;;17.62;99.51;95138.22;10297432;28;20034;-72
2021/09/05 20:31:24;;;;;;;6.15;4.15;;;;;;;17.70;100.00;95140.19;10298508;28;20518;-72
2021/09/05 20:36:26;;;;;;;7.03;4.40;;;;;;;17.60;99.96;95147.47;10298311;28;20439;-72
2021/09/05 20:41:27;;;;;;;4.70;3.90;;;;;;;17.30;100.00;95148.19;10323932;28;20026;-72
2021/09/05 20:46:27;;;;;;;7.07;4.85;;;;;;;17.07;100.00;95148.13;10351761;28;20034;-72
2021/09/05 20:51:30;;;;;;;7.70;5.22;;;;;;;17.04;100.00;95151.47;10336775;28;20026;-72
2021/09/05 20:56:31;;;;;;;6.55;4.80;;;;;;;16.87;100.00;95158.28;10320328;28;20102;-72
2021/09/05 21:01:31;;;;;;;8.50;4.88;;;;;;;16.82;100.00;95155.66;10337871;28;20126;-72
2021/09/05 21:06:32;;;;;;;14.35;4.45;;;;;;;16.77;100.00;95163.88;10338648;28;20496;-72
2021/09/05 21:11:32;;;;;;;7.50;3.90;;;;;;;16.66;100.00;95167.91;10319586;28;20031;-72
2021/09/05 21:16:33;;;;;;;10.60;4.95;;;;;;;16.69;100.00;95178.19;10297632;28;20031;-72
2021/09/05 21:21:34;;;;;;;7.90;4.97;;;;;;;16.50;100.00;95176.34;10298184;28;20073;-72
2021/09/05 21:26:34;;;;;;;6.23;4.67;;;;;;;16.44;100.00;95190.28;10297474;28;20038;-72
2021/09/05 21:31:35;;;;;;;5.70;4.05;;;;;;;16.45;100.00;95184.59;10290918;28;20077;-72
2021/09/05 21:36:35;;;;;;;8.20;4.97;;;;;;;16.35;100.00;95199.16;10291079;28;20053;-72
2021/09/05 21:41:35;;;;;;;8.73;5.07;;;;;;;16.34;100.00;95194.81;10291141;28;20301;-72
2021/09/05 21:46:36;;;;;;;8.63;4.10;;;;;;;16.07;100.00;95206.38;10291162;28;20649;-73
2021/09/05 21:51:36;;;;;;;8.95;4.35;;;;;;;15.89;100.00;95200.72;10291021;28;20329;-73
2021/09/05 21:56:37;;;;;;;8.00;4.13;;;;;;;15.61;100.00;95198.94;10290518;28;20038;-73
2021/09/05 22:01:37;;;;;;;6.43;3.93;;;;;;;15.49;100.00;95196.69;10288619;28;20038;-73
2021/09/05 22:06:37;;;;;;;6.53;4.57;;;;;;;15.41;100.00;95200.84;10289366;28;20046;-73
2021/09/05 22:11:38;;;;;;;12.03;5.03;;;;;;;15.38;100.00;95207.66;10289654;28;20038;-71
2021/09/05 22:16:39;;;;;;;6.90;4.97;;;;;;;15.45;100.00;95209.22;10289943;28;20049;-71
2021/09/05 22:21:39;;;;;;;6.38;4.45;;;;;;;15.49;100.00;95208.31;10288162;28;20275;-72
2021/09/05 22:26:40;;;;;;;9.50;4.57;;;;;;;15.53;100.00;95213.94;10288440;28;20041;-72
2021/09/05 22:31:40;;;;;;;8.03;4.40;;;;;;;15.47;100.00;95210.50;10289656;28;20035;-72
2021/09/05 22:36:41;;;;;;;8.27;4.40;;;;;;;15.39;100.00;95213.84;10289308;28;20809;-72
2021/09/05 22:41:41;;;;;;;5.95;4.05;;;;;;;15.24;100.00;95223.00;10288350;28;20587;-72
2021/09/05 22:46:41;;;;;;;5.30;4.07;;;;;;;15.26;100.00;95215.38;10288700;28;20525;-72
2021/09/05 22:51:43;;;;;;;7.20;4.15;;;;;;;15.34;100.00;95230.19;10288816;28;20073;-72
2021/09/05 22:56:43;;;;;;;7.30;4.28;;;;;;;15.37;100.00;95226.91;10287061;28;20038;-72
2021/09/05 23:01:44;;;;;;;6.25;4.47;;;;;;;15.44;100.00;95232.75;10288156;28;20356;-73
2021/09/05 23:06:44;;;;;;;8.00;4.90;;;;;;;15.37;100.00;95229.59;10288249;28;20062;-72
2021/09/05 23:11:44;;;;;;;7.63;4.43;;;;;;;15.36;100.00;95239.66;10287764;28;20093;-72
2021/09/05 23:16:45;;;;;;;8.47;5.00;;;;;;;15.28;100.00;95243.00;10287938;28;20030;-72
2021/09/05 23:21:45;;;;;;;6.97;5.05;;;;;;;15.23;100.00;95229.53;10287668;28;20053;-72
2021/09/05 23:26:46;;;;;;;8.67;5.30;;;;;;;15.25;100.00;95231.94;10287277;28;20390;-72
2021/09/05 23:31:46;;;;;;;8.20;4.90;;;;;;;15.11;100.00;95229.94;10287419;28;20270;-72
2021/09/05 23:36:46;;;;;;;7.80;4.67;;;;;;;14.91;100.00;95251.84;10286865;28;20069;-72
2021/09/05 23:41:47;;;;;;;9.40;5.22;;;;;;;14.58;100.00;95243.47;10285167;28;20035;-72
2021/09/05 23:46:47;;;;;;;7.53;4.63;;;;;;;14.35;100.00;95245.84;10286055;28;20031;-72
2021/09/05 23:51:48;;;;;;;9.32;5.32;;;;;;;14.29;100.00;95241.56;10284963;28;20289;-72
2021/09/05 23:56:48;;;;;;;6.57;4.40;;;;;;;14.24;100.00;95245.13;10286634;28;20053;-72
